Time;durP1;ratioP1;P1;durP2;ratioP2;P2;SDS_P1;SDS_P2;PMS_P1;PMS_P2;Temp;Humidity;BMP_temperature;BMP_pressure;BME280_temperature;BME280_humidity;BME280_pressure;Samples;Min_cycle;Max_cycle;Signal;HPM_P1;HPM_P2
2022/04/09 00:01:26;;;;;;;0.10;0.10;;;9.70;1.00;;;;;;5074204;28;20537;-68
2022/04/09 00:03:51;;;;;;;0.75;0.75;;;9.70;1.00;;;;;;5074821;28;20130;-68
2022/04/09 00:06:18;;;;;;;0.30;0.30;;;9.80;1.00;;;;;;5074824;28;20044;-68
2022/04/09 00:08:43;;;;;;;0.68;0.45;;;9.80;1.00;;;;;;5074747;28;20044;-68
2022/04/09 00:11:10;;;;;;;2.40;0.80;;;9.80;1.00;;;;;;5074531;28;20494;-68
2022/04/09 00:13:37;;;;;;;0.20;0.20;;;9.90;1.00;;;;;;5074714;28;20037;-68
2022/04/09 00:16:03;;;;;;;0.20;0.20;;;9.90;1.00;;;;;;5074494;28;20089;-68
2022/04/09 00:18:29;;;;;;;0.10;0.10;;;9.90;1.00;;;;;;5074796;28;20093;-68
2022/04/09 00:20:55;;;;;;;0.10;0.10;;;10.00;1.00;;;;;;5075251;28;20546;-68
2022/04/09 00:23:23;;;;;;;2.25;0.90;;;9.90;1.00;;;;;;5074200;28;20123;-68
2022/04/09 00:25:49;;;;;;;0.15;0.15;;;9.90;1.00;;;;;;5075119;28;20036;-68
2022/04/09 00:28:15;;;;;;;0.22;0.22;;;9.90;1.00;;;;;;5074469;28;20036;-68
2022/04/09 00:30:41;;;;;;;0.10;0.10;;;9.90;1.00;;;;;;5074245;28;20407;-68
2022/04/09 00:33:08;;;;;;;0.22;0.22;;;9.80;1.00;;;;;;5074212;28;20040;-68
2022/04/09 00:35:33;;;;;;;0.90;0.55;;;9.90;1.00;;;;;;5074177;28;20117;-68
2022/04/09 00:37:59;;;;;;;0.28;0.28;;;9.80;1.00;;;;;;5074513;28;20493;-68
2022/04/09 00:40:26;;;;;;;0.22;0.22;;;9.80;1.00;;;;;;5074110;28;20050;-68
2022/04/09 00:42:52;;;;;;;1.17;1.05;;;9.70;1.00;;;;;;5074327;28;20078;-68
2022/04/09 00:45:18;;;;;;;11.50;0.57;;;9.70;1.00;;;;;;5073940;28;20037;-68
2022/04/09 00:47:44;;;;;;;0.40;0.30;;;9.60;1.00;;;;;;5074380;28;20039;-68
2022/04/09 00:50:11;;;;;;;0.25;0.25;;;9.50;1.00;;;;;;5074416;28;20066;-68
2022/04/09 00:52:40;;;;;;;0.20;0.20;;;9.50;1.00;;;;;;5073943;28;20035;-68
2022/04/09 00:55:07;;;;;;;0.10;0.10;;;9.30;1.00;;;;;;5074177;28;20032;-68
2022/04/09 00:57:35;;;;;;;0.10;0.10;;;9.30;1.00;;;;;;5073932;28;20502;-68
2022/04/09 01:00:11;;;;;;;0.00;0.00;;;9.20;1.00;;;;;;5074235;28;20044;-68
2022/04/09 01:02:42;;;;;;;7.32;1.13;;;9.20;1.00;;;;;;5074627;28;20052;-68
2022/04/09 01:05:08;;;;;;;0.10;0.10;;;9.30;1.00;;;;;;5074581;28;20043;-68
2022/04/09 01:07:35;;;;;;;0.10;0.10;;;9.30;1.00;;;;;;5074465;28;20047;-68
2022/04/09 01:10:04;;;;;;;0.10;0.10;;;9.30;1.00;;;;;;5074550;28;20040;-68
2022/04/09 01:12:34;;;;;;;0.10;0.10;;;9.40;1.00;;;;;;5074607;28;20064;-68
2022/04/09 01:15:01;;;;;;;1.30;1.20;;;9.40;1.00;;;;;;5077850;28;20137;-68
2022/04/09 01:17:28;;;;;;;0.10;0.10;;;9.50;1.00;;;;;;5077863;28;20403;-68
2022/04/09 01:19:53;;;;;;;1.35;0.57;;;9.50;1.00;;;;;;5077981;28;20127;-68
2022/04/09 01:22:19;;;;;;;0.63;0.55;;;9.40;1.00;;;;;;5078413;28;20497;-68
2022/04/09 01:24:45;;;;;;;0.30;0.30;;;9.50;1.00;;;;;;5078085;28;20036;-68
2022/04/09 01:27:11;;;;;;;0.25;0.22;;;9.50;1.00;;;;;;5078027;28;20040;-68
2022/04/09 01:29:37;;;;;;;0.10;0.10;;;9.50;1.00;;;;;;5077968;28;20041;-68
2022/04/09 01:32:04;;;;;;;0.57;0.57;;;9.40;1.00;;;;;;5078766;28;20043;-68
2022/04/09 01:34:30;;;;;;;0.10;0.10;;;9.40;1.00;;;;;;5077609;28;20062;-68
2022/04/09 01:36:56;;;;;;;0.00;0.00;;;9.40;1.00;;;;;;5077875;28;20475;-68
2022/04/09 01:39:21;;;;;;;0.10;0.10;;;9.50;1.00;;;;;;5078022;28;20048;-68
2022/04/09 01:41:47;;;;;;;0.43;0.43;;;9.40;1.00;;;;;;5077765;28;20044;-68
2022/04/09 01:44:13;;;;;;;3.20;0.52;;;9.20;1.00;;;;;;5077837;28;20036;-68
2022/04/09 01:46:44;;;;;;;1.30;0.35;;;9.20;1.00;;;;;;5077385;28;20090;-68
2022/04/09 01:49:11;;;;;;;0.10;0.10;;;9.00;14.30;;;;;;5077310;28;20036;-68
2022/04/09 01:51:37;;;;;;;0.10;0.10;;;9.00;2.40;;;;;;5077883;28;20036;-68
2022/04/09 01:54:03;;;;;;;0.20;0.20;;;8.90;1.00;;;;;;5077637;28;20518;-68
2022/04/09 01:56:29;;;;;;;0.20;0.20;;;8.90;1.00;;;;;;5077671;28;20047;-68
2022/04/09 01:58:55;;;;;;;0.10;0.10;;;8.90;1.00;;;;;;5076921;28;20044;-68
2022/04/09 02:01:20;;;;;;;0.03;0.03;;;8.80;1.00;;;;;;5078035;28;20127;-68
2022/04/09 02:03:46;;;;;;;0.10;0.10;;;8.80;1.00;;;;;;5077057;28;20049;-68
2022/04/09 02:06:12;;;;;;;0.10;0.10;;;8.70;1.00;;;;;;5076727;28;20090;-68
2022/04/09 02:08:38;;;;;;;0.10;0.10;;;8.70;1.00;;;;;;5076987;28;20046;-68
2022/04/09 02:11:04;;;;;;;0.10;0.10;;;8.60;1.00;;;;;;5077300;28;20040;-68
2022/04/09 02:13:29;;;;;;;1.13;0.45;;;8.50;1.00;;;;;;5076881;28;20479;-68
2022/04/09 02:15:55;;;;;;;0.10;0.10;;;8.50;1.00;;;;;;5076736;28;20487;-68
2022/04/09 02:18:21;;;;;;;0.05;0.05;;;8.50;1.00;;;;;;5076756;28;20040;-68
2022/04/09 02:20:47;;;;;;;1.30;0.55;;;8.50;1.00;;;;;;5077412;28;20045;-68
2022/04/09 02:23:12;;;;;;;0.10;0.10;;;8.50;1.00;;;;;;5076737;28;20093;-68
2022/04/09 02:25:38;;;;;;;0.10;0.10;;;8.50;1.00;;;;;;5075996;28;20515;-68
2022/04/09 02:28:04;;;;;;;0.20;0.20;;;8.40;1.00;;;;;;5076844;28;20036;-68
2022/04/09 02:30:30;;;;;;;0.10;0.10;;;8.50;1.00;;;;;;5076491;28;20525;-68
2022/04/09 02:32:56;;;;;;;0.10;0.10;;;8.50;1.00;;;;;;5076278;28;20131;-68
2022/04/09 02:35:28;;;;;;;0.10;0.10;;;8.50;1.00;;;;;;5076160;28;20368;-68
2022/04/09 02:37:55;;;;;;;0.25;0.25;;;8.50;1.00;;;;;;5076697;28;20098;-68
2022/04/09 02:40:21;;;;;;;0.30;0.30;;;8.50;1.00;;;;;;5076203;28;20099;-68
2022/04/09 02:42:47;;;;;;;0.10;0.10;;;8.40;1.00;;;;;;5076361;28;20032;-68
2022/04/09 02:45:13;;;;;;;0.10;0.10;;;8.30;1.00;;;;;;5075874;28;20462;-68
2022/04/09 02:47:39;;;;;;;0.10;0.10;;;8.30;1.00;;;;;;5075971;28;20519;-68
2022/04/09 02:50:06;;;;;;;0.08;0.08;;;8.20;1.00;;;;;;5076109;28;20048;-68
2022/04/09 02:52:41;;;;;;;0.28;0.28;;;8.20;1.00;;;;;;5076088;28;20044;-68
2022/04/09 02:55:08;;;;;;;0.10;0.10;;;8.20;1.00;;;;;;5076130;28;20067;-68
2022/04/09 02:57:35;;;;;;;0.10;0.10;;;8.20;1.00;;;;;;5076421;28;20037;-68
2022/04/09 03:00:05;;;;;;;0.98;0.52;;;8.20;1.00;;;;;;5076033;28;20044;-68
2022/04/09 03:02:30;;;;;;;0.10;0.10;;;8.20;1.00;;;;;;5076023;28;20162;-68
2022/04/09 03:04:56;;;;;;;0.10;0.10;;;8.10;1.00;;;;;;5076201;28;20498;-68
2022/04/09 03:07:23;;;;;;;0.10;0.10;;;8.20;1.00;;;;;;5075883;28;20044;-68
2022/04/09 03:09:49;;;;;;;0.10;0.10;;;8.00;1.00;;;;;;5076301;28;20044;-68
2022/04/09 03:12:15;;;;;;;0.10;0.10;;;8.10;1.00;;;;;;5075804;28;20044;-68
2022/04/09 03:14:43;;;;;;;0.10;0.10;;;8.20;1.00;;;;;;5075915;28;20111;-68
2022/04/09 03:17:10;;;;;;;0.10;0.10;;;8.10;1.00;;;;;;5075800;28;20044;-68
2022/04/09 03:19:36;;;;;;;0.17;0.17;;;8.20;1.00;;;;;;5075321;28;20119;-68
2022/04/09 03:22:02;;;;;;;0.10;0.10;;;8.20;1.00;;;;;;5075835;28;20068;-68
2022/04/09 03:24:29;;;;;;;0.10;0.10;;;8.20;1.00;;;;;;5075674;28;20473;-68
2022/04/09 03:26:55;;;;;;;0.00;0.00;;;8.20;1.00;;;;;;5075723;28;20043;-68
2022/04/09 03:29:21;;;;;;;0.35;0.35;;;8.30;1.00;;;;;;5075937;28;20025;-68
2022/04/09 03:31:47;;;;;;;0.10;0.10;;;8.20;1.00;;;;;;5076111;28;20040;-68
2022/04/09 03:34:13;;;;;;;0.10;0.10;;;8.10;1.00;;;;;;5075551;28;20085;-68
2022/04/09 03:36:39;;;;;;;0.00;0.00;;;8.10;1.00;;;;;;5074469;28;20512;-68
2022/04/09 03:39:05;;;;;;;0.98;0.52;;;8.00;1.00;;;;;;5075397;28;20036;-68
2022/04/09 03:41:31;;;;;;;0.10;0.10;;;8.10;1.00;;;;;;5075122;28;20046;-68
2022/04/09 03:43:57;;;;;;;0.10;0.10;;;8.10;1.00;;;;;;5075049;28;20480;-68
2022/04/09 03:46:23;;;;;;;0.03;0.03;;;8.10;1.00;;;;;;5075194;28;20040;-68
2022/04/09 03:48:49;;;;;;;1.17;1.17;;;8.20;1.00;;;;;;5075317;28;20032;-68
2022/04/09 03:51:15;;;;;;;0.20;0.20;;;8.20;1.00;;;;;;5075065;28;20037;-68
2022/04/09 03:53:41;;;;;;;0.10;0.10;;;8.30;1.00;;;;;;5075282;28;20122;-68
2022/04/09 03:56:07;;;;;;;0.10;0.10;;;8.40;1.00;;;;;;5075306;28;20089;-68
2022/04/09 03:58:36;;;;;;;0.03;0.03;;;8.40;1.00;;;;;;5074911;28;20037;-68
2022/04/09 04:01:02;;;;;;;0.10;0.10;;;8.30;1.00;;;;;;5074750;28;20044;-68
2022/04/09 04:03:28;;;;;;;0.25;0.25;;;8.30;1.00;;;;;;5075139;28;20052;-68
2022/04/09 04:05:54;;;;;;;0.10;0.10;;;8.30;1.00;;;;;;5075381;28;20063;-68
2022/04/09 04:08:21;;;;;;;2.83;1.30;;;8.30;1.00;;;;;;5075091;28;20040;-68
2022/04/09 04:10:47;;;;;;;0.10;0.10;;;8.30;1.00;;;;;;5074832;28;20036;-68
2022/04/09 04:13:16;;;;;;;0.32;0.32;;;8.30;1.00;;;;;;5074923;28;20033;-68
2022/04/09 04:15:42;;;;;;;0.10;0.10;;;8.20;1.00;;;;;;5074462;28;20036;-68
2022/04/09 04:18:09;;;;;;;0.10;0.10;;;8.10;1.00;;;;;;5074861;28;20098;-68
2022/04/09 04:20:35;;;;;;;0.00;0.00;;;8.10;1.00;;;;;;5074412;28;20041;-68
2022/04/09 04:23:03;;;;;;;0.20;0.20;;;8.00;1.00;;;;;;5074559;28;20093;-68
2022/04/09 04:25:29;;;;;;;0.10;0.10;;;8.00;1.00;;;;;;5074546;28;20039;-68
2022/04/09 04:27:55;;;;;;;0.10;0.10;;;8.10;1.00;;;;;;5074517;28;20036;-68
2022/04/09 04:30:21;;;;;;;0.10;0.10;;;8.20;1.00;;;;;;5074741;28;20032;-68
2022/04/09 04:32:47;;;;;;;0.35;0.35;;;8.20;1.00;;;;;;5074061;28;20510;-68
2022/04/09 04:35:13;;;;;;;0.10;0.10;;;8.20;1.00;;;;;;5074825;28;20108;-68
2022/04/09 04:37:45;;;;;;;0.30;0.15;;;8.20;1.00;;;;;;5073408;28;20522;-68
2022/04/09 04:40:12;;;;;;;0.10;0.10;;;8.30;1.00;;;;;;5074136;28;20037;-68
2022/04/09 04:42:39;;;;;;;0.20;0.20;;;8.20;1.00;;;;;;5074728;28;20036;-68
2022/04/09 04:45:06;;;;;;;0.15;0.15;;;8.30;1.00;;;;;;5074452;28;20078;-68
2022/04/09 04:47:32;;;;;;;1.50;1.40;;;8.20;1.00;;;;;;5074901;28;20136;-68
2022/04/09 04:50:05;;;;;;;0.00;0.00;;;8.20;1.00;;;;;;5078919;28;20036;-68
2022/04/09 04:52:31;;;;;;;0.10;0.10;;;8.10;1.00;;;;;;5079070;28;20048;-68
2022/04/09 04:54:57;;;;;;;2.33;0.40;;;8.10;1.00;;;;;;5078463;28;20024;-68
2022/04/09 04:57:24;;;;;;;0.10;0.10;;;8.10;1.00;;;;;;5079141;28;20036;-68
2022/04/09 04:59:58;;;;;;;0.10;0.10;;;8.10;1.00;;;;;;5078478;28;20064;-68
2022/04/09 05:02:23;;;;;;;0.80;0.75;;;8.10;1.00;;;;;;5076332;28;20061;-68
2022/04/09 05:04:51;;;;;;;0.10;0.10;;;8.10;1.00;;;;;;5058172;28;20029;-68
2022/04/09 05:07:23;;;;;;;0.10;0.10;;;8.20;1.00;;;;;;5057656;28;20095;-68
2022/04/09 05:09:49;;;;;;;0.73;0.22;;;8.10;1.00;;;;;;5055955;28;20147;-68
2022/04/09 05:12:14;;;;;;;0.08;0.08;;;8.10;1.00;;;;;;5057658;28;20040;-68
2022/04/09 05:14:41;;;;;;;0.10;0.10;;;8.10;1.00;;;;;;5057298;28;20037;-68
2022/04/09 05:17:09;;;;;;;0.10;0.10;;;8.10;1.00;;;;;;5058094;28;20036;-68
2022/04/09 05:19:35;;;;;;;0.10;0.10;;;8.10;1.00;;;;;;5057756;28;20041;-68
2022/04/09 05:22:01;;;;;;;0.13;0.13;;;8.20;1.00;;;;;;5057460;28;20044;-68
2022/04/09 05:24:27;;;;;;;0.38;0.38;;;8.30;1.00;;;;;;5057401;28;20068;-68
2022/04/09 05:26:53;;;;;;;0.10;0.10;;;8.30;1.00;;;;;;5057388;28;20044;-68
2022/04/09 05:29:25;;;;;;;0.10;0.10;;;8.30;1.00;;;;;;5057839;28;20033;-68
2022/04/09 05:31:51;;;;;;;0.57;0.57;;;8.30;1.00;;;;;;5056049;28;20037;-68
2022/04/09 05:34:16;;;;;;;0.00;0.00;;;8.20;1.00;;;;;;5056013;28;20067;-68
2022/04/09 05:36:42;;;;;;;0.38;0.30;;;8.20;1.00;;;;;;5057253;28;20052;-68
2022/04/09 05:39:11;;;;;;;0.20;0.20;;;8.10;1.00;;;;;;5057158;28;20456;-68
2022/04/09 05:41:37;;;;;;;0.10;0.10;;;8.20;1.00;;;;;;5057506;28;20041;-68
2022/04/09 05:44:02;;;;;;;0.10;0.10;;;8.20;1.00;;;;;;5056001;28;20040;-68
2022/04/09 05:46:28;;;;;;;0.10;0.10;;;8.10;1.00;;;;;;5057660;28;20047;-68
2022/04/09 05:48:54;;;;;;;0.57;0.20;;;8.10;1.00;;;;;;5057365;28;20491;-69
2022/04/09 05:51:30;;;;;;;0.10;0.10;;;8.10;1.00;;;;;;5057935;28;20044;-67
2022/04/09 05:53:56;;;;;;;0.00;0.00;;;8.20;1.00;;;;;;5057213;28;20041;-68
2022/04/09 05:56:23;;;;;;;1.70;0.63;;;8.10;1.00;;;;;;5057459;28;20163;-68
2022/04/09 05:58:51;;;;;;;0.10;0.10;;;8.10;1.00;;;;;;5056694;28;20099;-68
2022/04/09 06:01:17;;;;;;;0.10;0.10;;;8.20;1.00;;;;;;5056722;28;20066;-68
2022/04/09 06:03:43;;;;;;;0.43;0.40;;;8.20;1.00;;;;;;5057376;28;20057;-68
2022/04/09 06:06:13;;;;;;;0.10;0.10;;;8.30;1.00;;;;;;5057535;28;20065;-68
2022/04/09 06:08:39;;;;;;;0.10;0.10;;;8.10;1.00;;;;;;5056955;28;20036;-68
2022/04/09 06:11:05;;;;;;;0.08;0.08;;;8.10;1.00;;;;;;5057579;28;20123;-68
2022/04/09 06:13:32;;;;;;;0.20;0.20;;;8.10;1.00;;;;;;5057449;28;20133;-69
2022/04/09 06:15:58;;;;;;;0.20;0.20;;;8.20;1.00;;;;;;5056996;28;20114;-69
2022/04/09 06:18:24;;;;;;;0.10;0.10;;;8.20;1.00;;;;;;5057018;28;20045;-68
2022/04/09 06:20:49;;;;;;;0.10;0.10;;;8.30;1.00;;;;;;5057409;28;20039;-69
2022/04/09 06:23:15;;;;;;;0.00;0.00;;;8.40;1.00;;;;;;5057568;28;20045;-69
2022/04/09 06:25:41;;;;;;;0.17;0.17;;;8.40;1.00;;;;;;5057040;28;20114;-68
2022/04/09 06:28:08;;;;;;;0.15;0.15;;;8.40;1.00;;;;;;5056984;28;20055;-69
2022/04/09 06:30:35;;;;;;;3.03;1.10;;;8.40;1.00;;;;;;5056576;28;20033;-69
2022/04/09 06:33:00;;;;;;;0.35;0.30;;;8.50;1.00;;;;;;5056567;28;20549;-69
2022/04/09 06:35:27;;;;;;;3.03;0.38;;;8.60;1.00;;;;;;5059986;28;20033;-68
2022/04/09 06:37:53;;;;;;;0.10;0.10;;;8.60;1.00;;;;;;5066421;28;20491;-68
2022/04/09 06:40:18;;;;;;;0.10;0.10;;;8.80;1.00;;;;;;5070503;28;20029;-69
2022/04/09 06:42:45;;;;;;;0.00;0.00;;;8.90;1.00;;;;;;5067462;28;20037;-68
2022/04/09 06:45:11;;;;;;;0.10;0.10;;;9.00;1.00;;;;;;5065185;28;20037;-69
2022/04/09 06:47:38;;;;;;;0.05;0.05;;;9.00;1.00;;;;;;5064804;28;20040;-68
2022/04/09 06:50:19;;;;;;;0.10;0.10;;;9.10;1.00;;;;;;5063411;28;20036;-68
2022/04/09 06:52:45;;;;;;;0.20;0.20;;;9.20;1.00;;;;;;5063799;28;20048;-68
2022/04/09 06:55:13;;;;;;;0.28;0.28;;;9.30;1.00;;;;;;5064001;28;20407;-68
2022/04/09 06:57:41;;;;;;;0.10;0.10;;;9.50;1.00;;;;;;5064109;28;20127;-68
2022/04/09 07:00:13;;;;;;;0.20;0.20;;;9.70;1.00;;;;;;5062702;28;20061;-68
2022/04/09 07:02:43;;;;;;;0.63;0.63;;;9.70;1.00;;;;;;5066310;28;20056;-69
2022/04/09 07:05:11;;;;;;;0.10;0.10;;;9.90;1.00;;;;;;5064091;28;20454;-68
2022/04/09 07:07:40;;;;;;;0.10;0.10;;;9.60;1.00;;;;;;5055684;28;20402;-68
2022/04/09 07:10:11;;;;;;;0.10;0.10;;;9.50;1.00;;;;;;5055808;28;20040;-68
2022/04/09 07:12:40;;;;;;;0.10;0.10;;;9.60;1.00;;;;;;5062020;28;20602;-68
2022/04/09 07:15:06;;;;;;;0.10;0.10;;;9.30;1.00;;;;;;5069602;28;20453;-68
2022/04/09 07:17:32;;;;;;;0.10;0.10;;;9.40;1.00;;;;;;5073190;28;20102;-68
2022/04/09 07:20:05;;;;;;;0.32;0.32;;;9.40;1.00;;;;;;5057190;28;20479;-68
2022/04/09 07:22:31;;;;;;;0.30;0.30;;;9.40;1.00;;;;;;5055006;28;20045;-68
2022/04/09 07:24:57;;;;;;;1.85;0.32;;;9.60;1.00;;;;;;5061784;28;20518;-68
2022/04/09 07:27:40;;;;;;;0.10;0.10;;;9.80;1.00;;;;;;5060509;28;20123;-69
2022/04/09 07:30:12;;;;;;;0.10;0.10;;;9.80;1.00;;;;;;5064962;28;20047;-69
2022/04/09 07:32:38;;;;;;;0.40;0.40;;;9.70;1.00;;;;;;5062960;28;20074;-69
2022/04/09 07:35:05;;;;;;;0.20;0.20;;;9.70;1.00;;;;;;5063893;28;20032;-68
2022/04/09 07:37:31;;;;;;;0.35;0.35;;;9.60;1.00;;;;;;5061094;28;20045;-68
2022/04/09 07:39:57;;;;;;;7.50;0.75;;;9.30;1.00;;;;;;5061064;28;20039;-68
2022/04/09 07:42:24;;;;;;;0.10;0.10;;;9.30;1.00;;;;;;5064220;28;20044;-69
2022/04/09 07:44:50;;;;;;;0.38;0.38;;;9.30;1.00;;;;;;5062194;28;20231;-69
2022/04/09 07:47:16;;;;;;;0.20;0.20;;;9.30;1.00;;;;;;5064614;28;20044;-69
2022/04/09 07:49:46;;;;;;;0.10;0.10;;;9.30;1.00;;;;;;5063749;28;20037;-69
2022/04/09 07:52:13;;;;;;;0.10;0.10;;;9.40;1.00;;;;;;5055955;28;20047;-69
2022/04/09 07:54:39;;;;;;;0.20;0.20;;;9.40;1.00;;;;;;5058772;28;20037;-69
2022/04/09 07:57:05;;;;;;;0.10;0.10;;;9.60;1.00;;;;;;5059042;28;20032;-69
2022/04/09 07:59:31;;;;;;;0.30;0.30;;;9.80;1.00;;;;;;5054875;28;20519;-69
2022/04/09 08:01:57;;;;;;;0.10;0.10;;;9.70;1.00;;;;;;5054089;28;20059;-69
2022/04/09 08:04:22;;;;;;;0.10;0.10;;;10.00;1.00;;;;;;5054463;28;20033;-69
2022/04/09 08:06:48;;;;;;;0.60;0.20;;;9.70;1.00;;;;;;5074090;28;20043;-69
2022/04/09 08:09:15;;;;;;;0.10;0.10;;;9.80;1.00;;;;;;5073972;28;20399;-69
2022/04/09 08:11:41;;;;;;;0.20;0.20;;;9.90;1.00;;;;;;5059953;28;20032;-69
2022/04/09 08:14:07;;;;;;;0.20;0.20;;;9.60;1.00;;;;;;5060223;28;20036;-69
2022/04/09 08:16:34;;;;;;;0.70;0.40;;;9.30;1.00;;;;;;5063354;28;20063;-69
2022/04/09 08:19:01;;;;;;;0.10;0.10;;;9.60;1.00;;;;;;5061246;28;20128;-69
2022/04/09 08:21:27;;;;;;;0.10;0.10;;;9.60;1.00;;;;;;5062722;28;20052;-69
2022/04/09 08:23:53;;;;;;;0.30;0.30;;;9.70;1.00;;;;;;5062611;28;20040;-69
2022/04/09 08:26:18;;;;;;;0.10;0.10;;;9.60;1.00;;;;;;5061306;28;20107;-69
2022/04/09 08:28:44;;;;;;;0.10;0.10;;;9.70;1.00;;;;;;5062973;28;20054;-69
2022/04/09 08:31:10;;;;;;;0.30;0.30;;;9.80;1.00;;;;;;5062809;28;20033;-69
2022/04/09 08:33:36;;;;;;;0.10;0.10;;;9.60;1.00;;;;;;5061464;28;20041;-69
2022/04/09 08:37:54;;;;;;;1.10;0.47;;;9.60;1.00;;;;;;5109146;27;20392;-70
2022/04/09 08:40:21;;;;;;;0.10;0.10;;;9.60;1.00;;;;;;5112334;28;20089;-69
2022/04/09 08:42:48;;;;;;;0.10;0.10;;;9.60;1.00;;;;;;5111697;28;20062;-69
2022/04/09 08:45:15;;;;;;;0.10;0.10;;;9.80;1.00;;;;;;5111002;28;20040;-68
2022/04/09 08:47:43;;;;;;;0.63;0.63;;;9.90;1.00;;;;;;5111472;28;20048;-68
2022/04/09 08:50:11;;;;;;;0.10;0.10;;;10.00;1.00;;;;;;5111977;28;20043;-68
2022/04/09 08:52:41;;;;;;;0.10;0.10;;;9.90;1.00;;;;;;5111768;28;20047;-68
2022/04/09 08:55:13;;;;;;;0.10;0.10;;;10.20;1.00;;;;;;5111927;28;20036;-68
2022/04/09 08:57:41;;;;;;;0.10;0.10;;;10.10;1.00;;;;;;5111937;28;20130;-69
2022/04/09 09:00:10;;;;;;;0.52;0.52;;;10.10;1.00;;;;;;5111677;28;20039;-68
2022/04/09 09:02:38;;;;;;;0.10;0.10;;;10.20;1.00;;;;;;5111267;28;20061;-68
2022/04/09 09:05:04;;;;;;;0.10;0.10;;;10.30;1.00;;;;;;5111610;28;20028;-68
2022/04/09 09:07:30;;;;;;;0.43;0.43;;;10.50;1.00;;;;;;5111342;28;20498;-68
2022/04/09 09:10:16;;;;;;;0.10;0.10;;;10.70;1.00;;;;;;5111539;28;20035;-68
2022/04/09 09:12:42;;;;;;;0.10;0.10;;;10.60;1.00;;;;;;5111316;28;20031;-71
2022/04/09 09:15:09;;;;;;;0.10;0.10;;;10.60;1.00;;;;;;5096827;28;20036;-71
2022/04/09 09:17:35;;;;;;;0.10;0.10;;;10.60;1.00;;;;;;5091433;28;20075;-71
2022/04/09 09:20:01;;;;;;;0.35;0.35;;;10.80;1.00;;;;;;5090842;28;20503;-71
2022/04/09 09:22:38;;;;;;;0.10;0.10;;;11.00;1.00;;;;;;5090854;28;20515;-71
2022/04/09 09:25:07;;;;;;;0.10;0.10;;;10.90;1.00;;;;;;5090838;28;20044;-71
2022/04/09 09:27:33;;;;;;;0.10;0.10;;;10.80;1.00;;;;;;5091746;28;20041;-71
2022/04/09 09:29:59;;;;;;;0.10;0.10;;;10.80;1.00;;;;;;5090482;28;20047;-71
2022/04/09 09:32:27;;;;;;;0.25;0.25;;;11.00;1.00;;;;;;5090689;28;20040;-71
2022/04/09 09:34:55;;;;;;;0.90;0.32;;;10.60;1.00;;;;;;5090580;28;20062;-71
2022/04/09 09:37:23;;;;;;;0.10;0.10;;;10.50;1.00;;;;;;5090769;28;20082;-71
2022/04/09 09:39:50;;;;;;;0.10;0.10;;;10.40;1.00;;;;;;5098350;28;20390;-70
2022/04/09 09:42:20;;;;;;;0.10;0.10;;;10.50;1.00;;;;;;5111324;28;20094;-70
2022/04/09 09:44:46;;;;;;;0.10;0.10;;;10.00;1.00;;;;;;5110821;28;20047;-71
2022/04/09 09:47:12;;;;;;;0.10;0.10;;;9.90;1.00;;;;;;5107993;28;20036;-70
2022/04/09 09:49:48;;;;;;;2.35;1.02;;;9.80;1.00;;;;;;5096304;28;20070;-70
2022/04/09 09:52:14;;;;;;;0.30;0.30;;;9.90;1.00;;;;;;5094909;28;20032;-70
2022/04/09 09:55:05;;;;;;;0.57;0.20;;;9.90;1.00;;;;;;5095709;28;20078;-70
2022/04/09 09:57:32;;;;;;;0.10;0.10;;;10.00;1.00;;;;;;5094537;28;20046;-71
2022/04/09 10:00:02;;;;;;;0.13;0.13;;;10.60;1.00;;;;;;5093252;28;20127;-71
2022/04/09 10:02:28;;;;;;;1.23;0.43;;;11.30;1.00;;;;;;5094363;28;20054;-71
2022/04/09 10:04:54;;;;;;;0.10;0.10;;;11.60;1.00;;;;;;5095449;28;20115;-72
2022/04/09 10:07:21;;;;;;;0.10;0.10;;;11.40;1.00;;;;;;5095735;28;20039;-71
2022/04/09 10:09:50;;;;;;;0.10;0.10;;;11.30;1.00;;;;;;5096849;28;20040;-71
2022/04/09 10:12:25;;;;;;;0.43;0.43;;;10.90;1.00;;;;;;5097393;28;20047;-71
2022/04/09 10:14:55;;;;;;;0.10;0.10;;;10.80;1.00;;;;;;5097221;28;20036;-71
2022/04/09 10:17:22;;;;;;;0.65;0.50;;;10.60;1.00;;;;;;5096838;28;20048;-71
2022/04/09 10:20:01;;;;;;;1.00;0.20;;;10.30;1.00;;;;;;5095651;28;20047;-71
2022/04/09 10:22:31;;;;;;;0.10;0.10;;;10.40;1.00;;;;;;5095481;28;20197;-71
2022/04/09 10:24:59;;;;;;;0.13;0.13;;;10.80;1.00;;;;;;5096343;28;20037;-71
2022/04/09 10:27:39;;;;;;;0.20;0.20;;;11.00;1.00;;;;;;5096515;28;20042;-71
2022/04/09 10:30:24;;;;;;;0.10;0.10;;;11.20;1.00;;;;;;5096433;28;20111;-71
2022/04/09 10:32:53;;;;;;;0.10;0.10;;;11.30;1.00;;;;;;5095826;28;20372;-71
2022/04/09 10:35:26;;;;;;;0.10;0.10;;;11.10;1.00;;;;;;5096368;28;20032;-71
2022/04/09 10:38:16;;;;;;;0.10;0.10;;;10.80;1.00;;;;;;5094955;28;20052;-71
2022/04/09 10:40:55;;;;;;;0.10;0.10;;;10.70;1.00;;;;;;5093129;28;20031;-71
2022/04/09 10:43:24;;;;;;;0.10;0.10;;;10.90;1.00;;;;;;5094591;28;20047;-71
2022/04/09 10:46:02;;;;;;;0.13;0.13;;;10.90;1.00;;;;;;5093861;28;20036;-70
2022/04/09 10:48:29;;;;;;;0.10;0.10;;;11.20;1.00;;;;;;5092948;28;20059;-70
2022/04/09 10:50:58;;;;;;;0.77;0.50;;;11.60;1.00;;;;;;5095146;28;20032;-70
2022/04/09 10:53:35;;;;;;;0.20;0.20;;;11.90;1.00;;;;;;5096258;28;20036;-71
2022/04/09 10:56:37;;;;;;;0.20;0.20;;;12.20;1.00;;;;;;5096761;28;20070;-71
2022/04/09 10:59:29;;;;;;;0.10;0.10;;;12.00;1.00;;;;;;5094603;28;20052;-71
2022/04/09 11:01:56;;;;;;;0.10;0.10;;;11.70;1.00;;;;;;5095600;28;20070;-70
2022/04/09 11:04:45;;;;;;;0.10;0.10;;;11.30;1.00;;;;;;5096198;28;20058;-71
2022/04/09 11:07:19;;;;;;;0.10;0.10;;;11.20;1.00;;;;;;5096277;28;20036;-71
2022/04/09 11:09:56;;;;;;;0.15;0.15;;;11.90;1.00;;;;;;5095917;28;20031;-71
2022/04/09 11:12:26;;;;;;;0.10;0.10;;;12.10;1.00;;;;;;5096625;28;20085;-71
2022/04/09 11:15:07;;;;;;;0.10;0.10;;;12.50;1.00;;;;;;5096276;28;20134;-71
2022/04/09 11:17:34;;;;;;;0.10;0.10;;;12.80;99.90;;;;;;5095886;28;20494;-71
2022/04/09 11:20:04;;;;;;;0.43;0.20;;;12.20;99.90;;;;;;5096137;28;20127;-71
2022/04/09 11:22:52;;;;;;;0.10;0.10;;;12.40;1.00;;;;;;5096085;28;20142;-71
2022/04/09 11:25:26;;;;;;;0.10;0.10;;;12.20;1.00;;;;;;5095402;28;20127;-71
2022/04/09 11:28:05;;;;;;;0.10;0.10;;;11.60;99.90;;;;;;5096011;28;20145;-71
2022/04/09 11:30:30;;;;;;;0.10;0.10;;;11.30;99.90;;;;;;5095438;28;20028;-71
2022/04/09 11:32:56;;;;;;;0.82;0.82;;;11.40;99.90;;;;;;5095873;28;20050;-71
2022/04/09 11:35:25;;;;;;;0.22;0.22;;;11.60;99.90;;;;;;5095489;28;20028;-71
2022/04/09 11:37:52;;;;;;;0.10;0.10;;;11.50;1.00;;;;;;5095579;28;20506;-71
2022/04/09 11:40:20;;;;;;;1.45;0.55;;;11.50;1.00;;;;;;5095250;28;20135;-71
2022/04/09 11:42:47;;;;;;;0.10;0.10;;;11.50;1.00;;;;;;5095046;28;20028;-71
2022/04/09 11:45:27;;;;;;;0.10;0.10;;;11.30;1.00;;;;;;5095190;28;20040;-71
2022/04/09 11:47:58;;;;;;;0.10;0.10;;;11.60;1.00;;;;;;5095609;28;20047;-71
2022/04/09 11:50:25;;;;;;;0.10;0.10;;;11.30;99.90;;;;;;5094957;28;20044;-71
2022/04/09 11:52:52;;;;;;;0.10;0.10;;;11.00;1.00;;;;;;5095175;28;20073;-71
2022/04/09 11:55:18;;;;;;;0.10;0.10;;;10.80;1.00;;;;;;5094855;28;20469;-71
2022/04/09 11:57:49;;;;;;;0.15;0.15;;;10.50;1.00;;;;;;5094813;28;20405;-71
2022/04/09 12:00:15;;;;;;;;;;;10.80;1.00;;;;;;5095448;28;20504;-71
2022/04/09 12:02:41;;;;;;;0.20;0.20;;;10.70;1.00;;;;;;5095470;28;19908;-71
2022/04/09 12:05:11;;;;;;;0.10;0.10;;;10.70;1.00;;;;;;5094980;28;20093;-71
2022/04/09 12:07:46;;;;;;;2.08;0.95;;;10.60;1.00;;;;;;5094855;28;20209;-71
2022/04/09 12:10:29;;;;;;;0.05;0.05;;;10.70;1.00;;;;;;5094452;28;20040;-71
2022/04/09 12:12:56;;;;;;;7.38;0.40;;;10.70;1.00;;;;;;5094918;28;20063;-71
2022/04/09 12:15:33;;;;;;;0.10;0.10;;;10.60;1.00;;;;;;5094466;28;20040;-71
2022/04/09 12:18:06;;;;;;;0.10;0.10;;;10.90;1.00;;;;;;5094853;28;20047;-71
2022/04/09 12:20:35;;;;;;;0.10;0.10;;;11.20;1.00;;;;;;5094574;28;20068;-70
2022/04/09 12:23:05;;;;;;;0.10;0.10;;;11.30;1.00;;;;;;5095373;28;20040;-71
2022/04/09 12:25:39;;;;;;;0.10;0.10;;;11.60;1.00;;;;;;5095082;28;20100;-71
2022/04/09 12:28:18;;;;;;;0.10;0.10;;;12.00;1.00;;;;;;5094789;28;20470;-71
2022/04/09 12:30:47;;;;;;;0.10;0.10;;;12.60;1.00;;;;;;5094682;28;20188;-71
2022/04/09 12:33:13;;;;;;;0.20;0.20;;;12.10;1.00;;;;;;5094670;28;20075;-71
2022/04/09 12:35:40;;;;;;;0.10;0.10;;;11.30;1.00;;;;;;5094173;28;20043;-71
2022/04/09 12:38:06;;;;;;;0.65;0.65;;;11.40;1.00;;;;;;5095125;28;20046;-71
2022/04/09 12:40:32;;;;;;;0.10;0.10;;;11.20;1.00;;;;;;5094689;28;20035;-71
2022/04/09 12:43:02;;;;;;;0.30;0.30;;;11.20;1.00;;;;;;5094780;28;20032;-71
2022/04/09 12:45:28;;;;;;;0.20;0.20;;;11.10;1.00;;;;;;5094679;28;20039;-71
2022/04/09 12:48:01;;;;;;;0.10;0.10;;;10.80;1.00;;;;;;5095405;28;20063;-71
2022/04/09 12:50:29;;;;;;;1.92;0.80;;;10.60;1.00;;;;;;5094880;28;20123;-71
2022/04/09 12:52:57;;;;;;;0.10;0.10;;;10.70;1.00;;;;;;5094788;28;20509;-71
2022/04/09 12:55:25;;;;;;;0.10;0.10;;;10.70;1.00;;;;;;5094763;28;20044;-71
2022/04/09 12:57:52;;;;;;;0.10;0.10;;;10.90;1.00;;;;;;5094376;28;20044;-71
2022/04/09 13:00:19;;;;;;;0.10;0.10;;;11.00;1.00;;;;;;5094624;28;20036;-71
2022/04/09 13:02:46;;;;;;;0.10;0.10;;;11.20;1.00;;;;;;5094695;28;20571;-71
2022/04/09 13:05:13;;;;;;;0.00;0.00;;;11.40;1.00;;;;;;5094658;28;20063;-71
2022/04/09 13:07:39;;;;;;;0.10;0.10;;;11.60;1.00;;;;;;5094807;28;20047;-71
2022/04/09 13:10:06;;;;;;;0.10;0.10;;;12.00;1.00;;;;;;5094715;28;20036;-71
2022/04/09 13:12:32;;;;;;;0.10;0.10;;;12.30;1.00;;;;;;5094639;28;20044;-71